createdAt,value
2018-05-31T00:00:07.681Z,3.83
2018-05-31T00:02:34.692Z,3.50
2018-05-31T00:05:01.211Z,4.57
2018-05-31T00:07:28.009Z,3.43
2018-05-31T00:09:54.525Z,3.70
2018-05-31T00:12:21.127Z,3.90
2018-05-31T00:14:47.701Z,3.30
2018-05-31T00:17:14.337Z,3.33
2018-05-31T00:19:40.863Z,4.20
2018-05-31T00:22:07.489Z,4.10
2018-05-31T00:24:34.069Z,3.30
2018-05-31T00:27:00.642Z,3.70
2018-05-31T00:29:27.351Z,3.17
2018-05-31T00:31:54.060Z,3.23
2018-05-31T00:34:20.589Z,3.70
2018-05-31T00:36:47.184Z,3.53
2018-05-31T00:39:13.985Z,3.57
2018-05-31T00:41:40.717Z,3.40
2018-05-31T00:44:07.388Z,3.50
2018-05-31T00:46:34.044Z,3.70
2018-05-31T00:49:00.830Z,3.20
2018-05-31T00:51:27.614Z,4.07
2018-05-31T00:53:54.248Z,3.87
2018-05-31T00:56:20.920Z,3.73
2018-05-31T00:58:47.509Z,3.83
2018-05-31T01:01:14.264Z,3.80
2018-05-31T01:03:41.097Z,3.23
2018-05-31T01:06:07.649Z,3.67
2018-05-31T01:08:34.177Z,3.20
2018-05-31T01:11:00.737Z,3.33
2018-05-31T01:13:27.244Z,2.73
2018-05-31T01:18:34.913Z,3.80
2018-05-31T01:21:01.492Z,2.90
2018-05-31T01:23:28.120Z,3.60
2018-05-31T01:25:54.704Z,3.50
2018-05-31T01:28:21.289Z,3.33
2018-05-31T01:30:47.904Z,3.30
2018-05-31T01:33:14.551Z,3.63
2018-05-31T01:35:41.077Z,3.90
2018-05-31T01:38:19.725Z,3.20
2018-05-31T01:40:46.280Z,3.10
2018-05-31T01:43:12.868Z,3.17
2018-05-31T01:45:39.431Z,3.30
2018-05-31T01:48:06.076Z,4.77
2018-05-31T01:50:32.713Z,4.17
2018-05-31T01:52:59.301Z,3.07
2018-05-31T01:55:25.936Z,3.50
2018-05-31T01:57:52.649Z,3.47
2018-05-31T02:00:19.201Z,3.00
2018-05-31T02:02:45.802Z,2.90
2018-05-31T02:05:12.300Z,3.63
2018-05-31T02:07:39.010Z,3.17
2018-05-31T02:10:05.685Z,3.07
2018-05-31T02:12:32.285Z,3.40
2018-05-31T02:14:59.416Z,3.47
2018-05-31T02:17:26.014Z,3.30
2018-05-31T02:19:52.570Z,3.20
2018-05-31T02:22:19.101Z,3.40
2018-05-31T02:24:45.721Z,3.70
2018-05-31T02:27:12.247Z,3.73
2018-05-31T02:29:38.826Z,3.53
2018-05-31T02:32:05.352Z,3.27
2018-05-31T02:34:47.020Z,3.77
2018-05-31T02:37:13.579Z,3.50
2018-05-31T02:39:40.169Z,3.87
2018-05-31T02:42:06.900Z,3.83
2018-05-31T02:44:33.399Z,3.80
2018-05-31T02:47:00.029Z,3.60
2018-05-31T02:49:26.682Z,3.53
2018-05-31T02:51:53.335Z,3.50
2018-05-31T02:54:19.872Z,3.60
2018-05-31T02:56:46.404Z,3.40
2018-05-31T02:59:13.202Z,4.00
2018-05-31T03:01:39.911Z,3.20
2018-05-31T03:04:06.529Z,3.90
2018-05-31T03:06:33.145Z,3.30
2018-05-31T03:09:00.059Z,3.57
2018-05-31T03:11:26.643Z,3.57
2018-05-31T03:13:54.050Z,3.63
2018-05-31T03:16:21.835Z,3.37
2018-05-31T03:23:09.430Z,3.73
2018-05-31T03:25:37.760Z,3.60
2018-05-31T03:28:05.273Z,3.50
2018-05-31T03:30:31.831Z,3.30
2018-05-31T03:32:58.345Z,3.97
2018-05-31T03:35:24.857Z,4.53
2018-05-31T03:37:51.588Z,4.17
2018-05-31T03:40:18.328Z,5.03
2018-05-31T03:42:44.997Z,5.22
2018-05-31T03:45:11.885Z,4.50
2018-05-31T03:47:38.470Z,4.50
2018-05-31T03:50:10.832Z,4.20
2018-05-31T03:52:39.527Z,3.97
2018-05-31T03:55:06.287Z,4.37
2018-05-31T03:57:33.305Z,4.57
2018-05-31T03:59:59.984Z,4.80
2018-05-31T04:02:26.642Z,4.47
2018-05-31T04:04:53.337Z,4.40
2018-05-31T04:07:20.094Z,4.30
2018-05-31T04:09:46.849Z,4.33
2018-05-31T04:12:13.670Z,4.87
2018-05-31T04:14:40.487Z,4.13
2018-05-31T04:17:07.333Z,5.53
2018-05-31T04:19:34.186Z,5.10
2018-05-31T04:22:01.005Z,4.90
2018-05-31T04:24:28.682Z,5.90
2018-05-31T04:26:57.242Z,5.20
2018-05-31T04:29:25.495Z,6.63
2018-05-31T04:31:58.786Z,6.10
2018-05-31T04:34:27.481Z,7.03
2018-05-31T04:36:55.661Z,5.47
2018-05-31T04:39:23.381Z,6.00
2018-05-31T04:41:50.226Z,6.80
2018-05-31T04:44:17.005Z,6.53
2018-05-31T04:46:43.964Z,6.97
2018-05-31T04:49:12.156Z,5.57
2018-05-31T04:51:39.069Z,6.07
2018-05-31T04:54:06.597Z,6.13
2018-05-31T04:56:34.112Z,5.40
2018-05-31T04:59:01.285Z,6.17
2018-05-31T05:01:28.266Z,5.47
2018-05-31T05:03:58.765Z,6.40
2018-05-31T05:06:25.432Z,6.63
2018-05-31T05:08:52.205Z,6.13
2018-05-31T05:11:19.344Z,6.33
2018-05-31T05:13:45.929Z,6.07
2018-05-31T05:16:12.636Z,6.83
2018-05-31T05:21:12.596Z,6.10
2018-05-31T05:23:39.180Z,6.10
2018-05-31T05:26:05.789Z,5.93
2018-05-31T05:28:32.464Z,5.57
2018-05-31T05:30:59.049Z,6.20
2018-05-31T05:33:25.706Z,6.90
2018-05-31T05:35:52.305Z,6.20
2018-05-31T05:38:18.859Z,6.03
2018-05-31T05:40:45.341Z,6.50
2018-05-31T05:43:11.919Z,6.43
2018-05-31T05:45:38.664Z,7.03
2018-05-31T05:48:05.249Z,6.10
2018-05-31T05:50:31.800Z,6.33
2018-05-31T05:53:05.368Z,6.13
2018-05-31T05:55:31.988Z,6.00
2018-05-31T05:57:58.545Z,5.17
2018-05-31T06:00:25.166Z,5.70
2018-05-31T06:02:51.728Z,5.83
2018-05-31T06:05:18.224Z,5.53
2018-05-31T06:07:44.793Z,6.17
2018-05-31T06:10:11.444Z,5.43
2018-05-31T06:12:38.029Z,5.10
2018-05-31T06:15:04.981Z,5.00
2018-05-31T06:17:31.678Z,4.90
2018-05-31T06:19:58.437Z,4.40
2018-05-31T06:22:25.031Z,4.47
2018-05-31T06:24:51.629Z,5.10
2018-05-31T06:27:18.208Z,4.50
2018-05-31T06:29:44.790Z,5.70
2018-05-31T06:32:11.374Z,5.93
2018-05-31T06:34:37.952Z,6.30
2018-05-31T06:37:04.550Z,5.93
2018-05-31T06:39:31.205Z,5.87
2018-05-31T06:41:57.713Z,7.40
2018-05-31T06:44:24.345Z,6.73
2018-05-31T06:46:51.065Z,5.77
2018-05-31T06:49:17.860Z,7.40
2018-05-31T06:51:44.570Z,6.77
2018-05-31T06:54:11.237Z,6.67
2018-05-31T06:56:37.797Z,6.43
2018-05-31T06:59:04.319Z,6.73
2018-05-31T07:01:30.853Z,6.83
2018-05-31T07:03:57.428Z,6.20
2018-05-31T07:06:23.956Z,6.00
2018-05-31T07:08:50.449Z,6.23
2018-05-31T07:11:17.008Z,5.73
2018-05-31T07:13:43.815Z,4.97
2018-05-31T07:16:10.417Z,5.03
2018-05-31T07:18:37.149Z,5.20
2018-05-31T07:21:03.737Z,4.20
2018-05-31T07:23:30.232Z,4.00
2018-05-31T07:25:56.836Z,3.53
2018-05-31T07:28:23.384Z,4.03
2018-05-31T07:40:02.448Z,4.30
2018-05-31T07:42:29.006Z,4.00
2018-05-31T07:44:55.581Z,3.90
2018-05-31T07:47:22.205Z,5.27
2018-05-31T07:49:48.756Z,4.93
2018-05-31T07:52:15.305Z,3.37
2018-05-31T07:54:41.866Z,3.60
2018-05-31T07:57:08.448Z,2.73
2018-05-31T07:59:34.965Z,2.97
2018-05-31T08:02:01.636Z,3.30
2018-05-31T08:04:28.342Z,2.63
2018-05-31T08:06:54.892Z,2.70
2018-05-31T08:09:21.451Z,3.13
2018-05-31T08:11:48.149Z,2.53
2018-05-31T08:14:14.720Z,2.57
2018-05-31T08:16:41.237Z,3.20
2018-05-31T08:19:07.768Z,2.50
2018-05-31T08:21:34.429Z,2.37
2018-05-31T08:24:01.096Z,2.17
2018-05-31T08:26:27.614Z,2.40
2018-05-31T08:28:54.257Z,1.93
2018-05-31T08:31:27.808Z,2.93
2018-05-31T08:33:54.278Z,2.10
2018-05-31T08:36:20.956Z,2.50
2018-05-31T08:38:47.760Z,2.73
2018-05-31T08:41:14.385Z,2.10
2018-05-31T08:43:41.021Z,2.60
2018-05-31T08:46:07.658Z,2.20
2018-05-31T08:48:34.181Z,2.00
2018-05-31T08:51:00.813Z,1.73
2018-05-31T08:53:27.470Z,2.20
2018-05-31T08:55:54.016Z,2.37
2018-05-31T08:58:20.564Z,2.00
2018-05-31T09:00:47.038Z,2.20
2018-05-31T09:03:13.601Z,1.90
2018-05-31T09:05:40.213Z,2.50
2018-05-31T09:08:06.789Z,2.23
2018-05-31T09:10:33.357Z,2.10
2018-05-31T09:12:59.962Z,2.00
2018-05-31T09:15:33.687Z,1.87
2018-05-31T09:18:00.226Z,1.60
2018-05-31T09:20:26.841Z,1.87
2018-05-31T09:22:53.384Z,1.77
2018-05-31T09:25:20.048Z,1.50
2018-05-31T09:27:46.556Z,1.63
2018-05-31T09:30:13.064Z,1.20
2018-05-31T09:32:39.608Z,2.07
2018-05-31T09:35:06.275Z,1.70
2018-05-31T09:37:33.002Z,1.70
2018-05-31T09:39:59.561Z,1.70
2018-05-31T09:42:33.057Z,1.33
2018-05-31T09:44:59.688Z,1.53
2018-05-31T09:47:26.164Z,1.43
2018-05-31T09:49:52.673Z,1.33
2018-05-31T09:52:19.196Z,1.60
2018-05-31T09:54:45.791Z,2.10
2018-05-31T09:57:12.573Z,1.30
2018-05-31T09:59:39.142Z,1.27
2018-05-31T10:02:05.695Z,1.33
2018-05-31T10:04:39.317Z,1.47
2018-05-31T10:07:05.901Z,1.70
2018-05-31T10:09:32.593Z,2.10
2018-05-31T10:11:59.221Z,1.97
2018-05-31T10:14:25.812Z,2.00
2018-05-31T10:16:52.808Z,1.73
2018-05-31T10:19:19.460Z,1.60
2018-05-31T10:21:46.106Z,2.50
2018-05-31T10:24:12.774Z,1.80
2018-05-31T10:26:39.476Z,1.60
2018-05-31T10:29:05.939Z,3.07
2018-05-31T10:31:32.475Z,4.67
2018-05-31T10:33:59.093Z,2.00
2018-05-31T10:36:25.695Z,2.10
2018-05-31T10:38:52.350Z,1.93
2018-05-31T10:41:18.987Z,2.03
2018-05-31T10:43:45.648Z,2.23
2018-05-31T10:46:12.288Z,2.10
2018-05-31T10:48:38.909Z,2.03
2018-05-31T10:51:05.515Z,1.50
2018-05-31T10:53:32.091Z,1.70
2018-05-31T10:55:58.755Z,2.60
2018-05-31T10:58:25.271Z,1.53
2018-05-31T11:00:51.789Z,1.43
2018-05-31T11:03:18.421Z,1.50
2018-05-31T11:05:45.087Z,1.60
2018-05-31T11:08:11.725Z,1.60
2018-05-31T11:10:38.265Z,1.20
2018-05-31T11:13:04.814Z,2.40
2018-05-31T11:15:31.337Z,3.37
2018-05-31T11:17:57.877Z,2.20
2018-05-31T11:20:24.734Z,1.40
2018-05-31T11:22:51.381Z,2.80
2018-05-31T11:25:17.875Z,1.83
2018-05-31T11:27:44.652Z,2.37
2018-05-31T11:30:11.315Z,1.80
2018-05-31T11:32:37.948Z,1.87
2018-05-31T11:35:04.606Z,1.70
2018-05-31T11:37:31.208Z,2.00
2018-05-31T11:39:57.797Z,1.80
2018-05-31T11:42:24.350Z,1.67
2018-05-31T11:44:50.870Z,1.80
2018-05-31T11:47:17.637Z,1.60
2018-05-31T11:49:44.422Z,1.87
2018-05-31T11:52:11.063Z,1.67
2018-05-31T11:54:37.642Z,2.40
2018-05-31T11:57:04.382Z,2.10
2018-05-31T11:59:30.970Z,1.53
2018-05-31T12:01:57.600Z,2.27
2018-05-31T12:04:24.168Z,3.23
2018-05-31T12:07:02.417Z,2.17
2018-05-31T12:09:30.004Z,1.83
2018-05-31T12:11:56.673Z,2.27
2018-05-31T12:14:23.145Z,1.70
2018-05-31T12:16:49.757Z,1.90
2018-05-31T12:19:16.499Z,1.57
2018-05-31T12:21:50.258Z,2.07
2018-05-31T12:24:17.001Z,1.70
2018-05-31T12:26:43.644Z,2.60
2018-05-31T12:29:10.165Z,2.50
2018-05-31T12:31:36.762Z,2.10
2018-05-31T12:34:03.314Z,2.10
2018-05-31T12:36:29.935Z,1.80
2018-05-31T12:38:56.592Z,2.10
2018-05-31T12:41:23.253Z,2.20
2018-05-31T12:43:49.789Z,1.60
2018-05-31T12:46:16.620Z,2.23
2018-05-31T12:48:43.410Z,1.80
2018-05-31T12:51:09.984Z,2.03
2018-05-31T12:53:36.584Z,1.50
2018-05-31T12:56:03.081Z,2.33
2018-05-31T12:58:29.612Z,1.90
2018-05-31T13:00:56.328Z,2.10
2018-05-31T13:03:22.842Z,1.73
2018-05-31T13:05:49.430Z,1.80
2018-05-31T13:08:16.001Z,1.60
2018-05-31T13:10:42.596Z,2.50
2018-05-31T13:13:09.093Z,2.40
2018-05-31T13:15:35.645Z,2.63
2018-05-31T13:18:02.248Z,2.50
2018-05-31T13:20:28.788Z,2.47
2018-05-31T13:22:55.359Z,2.10
2018-05-31T13:25:22.018Z,2.00
2018-05-31T13:27:48.552Z,2.13
2018-05-31T13:30:15.166Z,1.67
2018-05-31T13:32:41.639Z,1.50
2018-05-31T13:35:08.204Z,1.70
2018-05-31T13:37:34.961Z,1.67
2018-05-31T13:40:01.601Z,2.00
2018-05-31T13:42:28.315Z,1.57
2018-05-31T13:44:54.983Z,1.80
2018-05-31T13:47:21.440Z,3.60
2018-05-31T13:49:48.001Z,1.97
2018-05-31T13:52:14.669Z,1.90
2018-05-31T13:54:41.205Z,4.37
2018-05-31T13:57:07.797Z,2.87
2018-05-31T13:59:34.301Z,2.80
2018-05-31T14:02:00.905Z,2.53
2018-05-31T14:04:27.453Z,2.50
2018-05-31T14:06:54.260Z,1.27
2018-05-31T14:09:20.921Z,2.10
2018-05-31T14:11:47.497Z,1.77
2018-05-31T14:14:14.002Z,3.83
2018-05-31T14:16:40.593Z,1.60
2018-05-31T14:19:07.173Z,2.43
2018-05-31T14:21:33.662Z,1.30
2018-05-31T14:24:00.193Z,1.20
2018-05-31T14:26:26.788Z,8.33
2018-05-31T14:28:53.565Z,1.60
2018-05-31T14:31:20.237Z,1.80
2018-05-31T14:33:46.802Z,1.47
2018-05-31T14:36:13.401Z,1.70
2018-05-31T14:38:39.991Z,1.70
2018-05-31T14:41:06.504Z,1.80
2018-05-31T14:43:33.137Z,1.90
2018-05-31T14:45:59.652Z,1.90
2018-05-31T14:48:26.277Z,1.47
2018-05-31T14:50:52.781Z,1.93
2018-05-31T14:53:19.416Z,1.50
2018-05-31T14:55:45.900Z,1.30
2018-05-31T14:58:12.384Z,1.77
2018-05-31T15:03:19.873Z,2.13
2018-05-31T15:05:46.541Z,1.70
2018-05-31T15:08:13.059Z,1.60
2018-05-31T15:10:39.878Z,1.97
2018-05-31T15:13:06.498Z,1.57
2018-05-31T15:15:33.041Z,1.70
2018-05-31T15:17:59.615Z,1.57
2018-05-31T15:20:26.396Z,1.97
2018-05-31T15:22:53.108Z,1.60
2018-05-31T15:25:19.629Z,1.80
2018-05-31T15:27:49.787Z,1.73
2018-05-31T15:30:16.738Z,1.60
2018-05-31T15:32:44.061Z,1.70
2018-05-31T15:35:17.212Z,1.70
2018-05-31T15:37:43.824Z,1.90
2018-05-31T15:40:10.550Z,1.70
2018-05-31T15:42:37.213Z,1.70
2018-05-31T15:45:03.921Z,1.20
2018-05-31T15:47:30.593Z,1.50
2018-05-31T15:49:57.517Z,1.60
2018-05-31T15:52:24.333Z,1.53
2018-05-31T15:54:50.833Z,1.10
2018-05-31T15:57:17.629Z,0.80
2018-05-31T15:59:44.381Z,1.20
2018-05-31T16:02:11.106Z,1.60
2018-05-31T16:04:37.684Z,1.80
2018-05-31T16:07:04.908Z,1.70
2018-05-31T16:09:32.648Z,2.03
2018-05-31T16:12:00.335Z,2.13
2018-05-31T16:14:29.110Z,2.17
2018-05-31T16:16:55.657Z,2.00
2018-05-31T16:19:22.428Z,2.30
2018-05-31T16:25:09.017Z,2.37
2018-05-31T16:27:38.433Z,1.83
2018-05-31T16:30:06.056Z,2.20
2018-05-31T16:32:40.907Z,2.93
2018-05-31T16:35:28.749Z,4.93
2018-05-31T16:37:56.337Z,3.37
2018-05-31T16:40:23.921Z,3.83
2018-05-31T16:42:51.220Z,4.57
2018-05-31T16:45:20.665Z,2.50
2018-05-31T16:47:47.410Z,3.90
2018-05-31T16:50:15.177Z,2.57
2018-05-31T16:52:41.991Z,7.60
2018-05-31T16:55:08.736Z,3.50
2018-05-31T16:57:35.597Z,3.43
2018-05-31T17:00:02.327Z,2.93
2018-05-31T17:02:29.062Z,2.50
2018-05-31T17:04:55.610Z,2.60
2018-05-31T17:07:22.165Z,2.67
2018-05-31T17:09:48.780Z,4.07
2018-05-31T17:12:15.433Z,3.50
2018-05-31T17:14:42.099Z,3.73
2018-05-31T17:17:09.683Z,4.63
2018-05-31T17:19:36.309Z,5.63
2018-05-31T17:22:03.145Z,3.60
2018-05-31T17:24:29.973Z,3.33
2018-05-31T17:26:56.576Z,4.37
2018-05-31T17:29:23.319Z,2.97
2018-05-31T17:31:49.998Z,3.10
2018-05-31T17:34:17.549Z,3.97
2018-05-31T17:36:45.928Z,3.67
2018-05-31T17:39:17.074Z,3.13
2018-05-31T17:41:43.760Z,3.20
2018-05-31T17:44:10.343Z,3.87
2018-05-31T17:46:37.178Z,3.80
2018-05-31T17:49:03.928Z,4.00
2018-05-31T17:51:30.438Z,3.90
2018-05-31T17:53:56.996Z,2.93
2018-05-31T17:56:23.600Z,2.47
2018-05-31T17:58:50.525Z,2.50
2018-05-31T18:01:17.181Z,2.57
2018-05-31T18:03:43.816Z,2.93
2018-05-31T18:06:10.575Z,3.93
2018-05-31T18:08:37.289Z,5.57
2018-05-31T18:11:03.795Z,7.87
2018-05-31T18:13:30.373Z,3.93
2018-05-31T18:15:57.192Z,5.27
2018-05-31T18:18:23.853Z,5.53
2018-05-31T18:20:50.488Z,3.20
2018-05-31T18:23:17.059Z,2.97
2018-05-31T18:25:44.450Z,3.20
2018-05-31T18:28:11.233Z,2.97
2018-05-31T18:30:38.431Z,4.20
2018-05-31T18:33:05.205Z,4.07
2018-05-31T18:35:32.550Z,4.23
2018-05-31T18:37:59.217Z,3.00
2018-05-31T18:40:26.134Z,2.93
2018-05-31T18:42:56.090Z,2.97
2018-05-31T18:45:22.991Z,3.17
2018-05-31T18:47:49.689Z,13.77
2018-05-31T18:50:16.280Z,7.67
2018-05-31T18:52:42.951Z,42.63
2018-05-31T18:55:09.888Z,62.33
2018-05-31T18:57:36.999Z,69.80
2018-05-31T19:00:03.757Z,71.70
2018-05-31T19:02:30.380Z,69.10
2018-05-31T19:04:57.083Z,45.27
2018-05-31T19:07:25.702Z,28.53
2018-05-31T19:09:52.269Z,15.60
2018-05-31T19:12:24.910Z,9.60
2018-05-31T19:14:51.612Z,8.97
2018-05-31T19:17:18.453Z,9.07
2018-05-31T19:19:51.114Z,7.83
2018-05-31T19:22:17.758Z,8.43
2018-05-31T19:27:50.790Z,5.57
2018-05-31T19:33:55.466Z,6.53
2018-05-31T19:36:28.126Z,5.83
2018-05-31T19:38:54.715Z,5.70
2018-05-31T19:41:21.525Z,6.73
2018-05-31T19:43:54.089Z,6.20
2018-05-31T19:46:20.697Z,5.43
2018-05-31T19:48:47.171Z,5.43
2018-05-31T19:51:19.825Z,5.47
2018-05-31T19:53:46.680Z,5.63
2018-05-31T19:56:13.495Z,5.90
2018-05-31T19:58:46.217Z,5.03
2018-05-31T20:01:18.716Z,4.10
2018-05-31T20:03:45.293Z,4.50
2018-05-31T20:06:11.800Z,4.93
2018-05-31T20:08:39.265Z,4.80
2018-05-31T20:11:06.213Z,4.70
2018-05-31T20:13:35.761Z,4.30
2018-05-31T20:16:06.563Z,3.97
2018-05-31T20:18:33.458Z,4.00
2018-05-31T20:21:00.130Z,4.67
2018-05-31T20:23:26.809Z,5.07
2018-05-31T20:25:54.770Z,3.43
2018-05-31T20:28:24.681Z,3.07
2018-05-31T20:30:53.338Z,2.80
2018-05-31T20:33:19.994Z,3.70
2018-05-31T20:35:48.800Z,3.47
2018-05-31T20:38:15.462Z,3.00
2018-05-31T20:40:45.048Z,3.13
2018-05-31T20:43:12.223Z,3.10
2018-05-31T20:45:38.863Z,2.60
2018-05-31T20:48:05.680Z,3.47
2018-05-31T20:50:32.234Z,2.73
2018-05-31T20:52:59.373Z,3.80
2018-05-31T20:55:26.881Z,3.20
2018-05-31T20:57:55.253Z,2.83
2018-05-31T21:00:22.258Z,2.60
2018-05-31T21:02:50.127Z,2.60
2018-05-31T21:05:17.219Z,3.13
2018-05-31T21:07:44.005Z,3.40
2018-05-31T21:10:10.753Z,3.47
2018-05-31T21:12:37.426Z,3.17
2018-05-31T21:15:07.193Z,4.13
2018-05-31T21:17:34.011Z,4.20
2018-05-31T21:20:00.971Z,3.90
2018-05-31T21:22:27.520Z,3.10
2018-05-31T21:24:54.062Z,3.23
2018-05-31T21:27:20.624Z,3.10
2018-05-31T21:29:47.439Z,3.10
2018-05-31T21:32:14.306Z,3.70
2018-05-31T21:34:41.217Z,3.10
2018-05-31T21:37:07.797Z,3.33
2018-05-31T21:39:34.812Z,2.97
2018-05-31T21:42:01.461Z,3.30
2018-05-31T21:44:28.092Z,4.03
2018-05-31T21:46:54.766Z,3.33
2018-05-31T21:49:21.602Z,2.97
2018-05-31T21:51:48.216Z,3.30
2018-05-31T21:54:14.901Z,3.00
2018-05-31T21:56:41.596Z,3.20
2018-05-31T21:59:08.169Z,4.03
2018-05-31T22:01:35.404Z,3.43
2018-05-31T22:04:02.159Z,3.40
2018-05-31T22:06:29.009Z,3.37
2018-05-31T22:08:55.591Z,3.63
2018-05-31T22:11:22.369Z,3.10
2018-05-31T22:13:48.996Z,3.10
2018-05-31T22:16:15.496Z,2.90
2018-05-31T22:18:42.046Z,3.10
2018-05-31T22:21:08.554Z,3.40
2018-05-31T22:23:35.115Z,3.10
2018-05-31T22:26:01.777Z,3.33
2018-05-31T22:28:28.580Z,2.83
2018-05-31T22:30:55.371Z,3.33
2018-05-31T22:33:21.989Z,2.67
2018-05-31T22:35:49.052Z,2.70
2018-05-31T22:38:15.786Z,2.50
2018-05-31T22:40:42.352Z,2.63
2018-05-31T22:43:08.889Z,2.73
2018-05-31T22:45:35.353Z,2.90
2018-05-31T22:48:01.823Z,2.73
2018-05-31T22:50:28.434Z,2.50
2018-05-31T22:52:55.033Z,2.63
2018-05-31T22:55:21.691Z,2.07
2018-05-31T22:57:48.230Z,3.20
2018-05-31T23:00:14.825Z,2.80
2018-05-31T23:02:41.459Z,2.53
2018-05-31T23:05:08.111Z,2.90
2018-05-31T23:07:34.709Z,2.80
2018-05-31T23:10:01.280Z,2.63
2018-05-31T23:12:28.037Z,3.00
2018-05-31T23:14:54.553Z,2.60
2018-05-31T23:17:21.325Z,2.90
2018-05-31T23:19:48.055Z,2.93
2018-05-31T23:22:14.652Z,2.80
2018-05-31T23:24:41.248Z,2.90
2018-05-31T23:27:07.790Z,3.00
2018-05-31T23:29:34.360Z,2.63
2018-05-31T23:32:01.995Z,2.87
2018-05-31T23:34:28.762Z,2.80
2018-05-31T23:36:56.511Z,2.57
2018-05-31T23:39:23.786Z,2.50
2018-05-31T23:41:50.422Z,3.40
2018-05-31T23:44:17.210Z,3.20
2018-05-31T23:46:43.946Z,2.73
2018-05-31T23:49:10.594Z,2.93
2018-05-31T23:51:37.367Z,3.00
2018-05-31T23:54:04.139Z,2.70
2018-05-31T23:56:30.955Z,2.60
2018-05-31T23:58:57.485Z,2.87
